KFFLKMLI

Guest
Details From KFFL - Fairfield Muni
To KMLI - Quad City Intl
Flight Number -
Tags Generated
Created
Modified
Stats Distance 71 nm / 131 km
Max Altitude 0 ft / 0 m
Waypoints 2
Social Downloads 0
Likes 0
Share VATSIM

Download

Looking for another format? Having issues loading an existing format? Contact us
Advertisement - Login to hide

Notes

Generated

Route

KFFL KMLI

ID Type Via Altitude Latitude Longitude Leg Dist Tot Dist Heading (true) Name
O KFFL APT - 0 ft / 0 m 41.05334˚ -91.98687˚ - 0 nm - -
O KMLI APT - 0 ft / 0 m 41.44320˚ -90.51316˚ 70 nm 70 nm 70° / 71° -

Altitude Profile

Advertisement - Login to hide

KFFL

Details ICAO KFFL
Name FAIRFIELD MUNI
Region United States
Timezone America/Chicago (UTC-5.0)
Stats Elevation 799 ft / 244 m (AMSL)
Location 41.053538° -91.982016°
Runways 2
Magnetic Variation 0.451° W

METAR

KFFL 230735Z AUTO 12006KT 10SM FEW095 18/16 A3007 RMK AO2 PWINO

Decode

TAF

Not found

Departure Runways

ID Width Length Bearing (true) Bearing (mag) Surface Threshold Offset Overrun Length
08 165 ft / 50 m 2,445 ft / 745 m 86.43° 86.88° Dirt 0 ft / 0 m 0 ft / 0 m
18 75 ft / 23 m 4,007 ft / 1,221 m 179.64° 180.09° Asphalt 0 ft / 0 m 0 ft / 0 m
26 165 ft / 50 m 2,445 ft / 745 m 266.43° 266.88° Dirt 0 ft / 0 m 0 ft / 0 m
36 75 ft / 23 m 4,007 ft / 1,221 m 359.64° 0.09° Asphalt 0 ft / 0 m 0 ft / 0 m

KMLI

Details ICAO KMLI (MLI)
Name QUAD CITY INTL
Region United States
Timezone America/Chicago (UTC-5.0)
Stats Elevation 590 ft / 180 m (AMSL)
Location 41.448401° -90.507052°
Runways 3
Magnetic Variation 1.638° W

METAR

KMLI 230652Z AUTO 07004KT 10SM CLR 16/15 A3009 RMK AO2 SLP187 T01610150

Decode

TAF

TAF KMLI 230520Z 2306/2406 08004KT P6SM SCT100 TEMPO 2310/2313 4SM BR FM231600 14007KT P6SM SCT050 SCT250

Decode

Destination Runways

ID Width Length Bearing (true) Bearing (mag) Surface Threshold Offset Overrun Length
05 150 ft / 46 m 4,506 ft / 1,373 m 48.02° 49.66° Asphalt 0 ft / 0 m 0 ft / 0 m
09 150 ft / 46 m 9,979 ft / 3,042 m 90.92° 92.56° Asphalt 0 ft / 0 m 0 ft / 0 m
13 150 ft / 46 m 7,055 ft / 2,150 m 128.18° 129.82° Asphalt 0 ft / 0 m 0 ft / 0 m
23 150 ft / 46 m 4,506 ft / 1,373 m 228.03° 229.67° Asphalt 0 ft / 0 m 0 ft / 0 m
27 150 ft / 46 m 9,979 ft / 3,042 m 270.95° 272.59° Asphalt 0 ft / 0 m 0 ft / 0 m
31 150 ft / 46 m 7,055 ft / 2,150 m 308.20° 309.84° Asphalt 222 ft / 68 m 0 ft / 0 m

Approach Navaids

Runway Type Ident Frequency Range Bearing (true) Bearing (mag) Slope Elevation
09 Localiser IMLI 110.50 MHz 18 nm / 33 km 90.96° 92.60° - 574 ft / 175 m (AMSL)
09 Glidescope IMLI 110.50 MHz 10 nm / 19 km 90.94° 92.58° 2.80° 581 ft / 177 m (AMSL)
09 DME IMLI 110.50 MHz 18 nm / 33 km - - - 590 ft / 180 m (AMSL)
27 Localiser IGEQ 110.50 MHz 18 nm / 33 km 271.18° 272.82° - 574 ft / 175 m (AMSL)
27 Glidescope IGEQ 110.50 MHz 10 nm / 19 km 270.94° 272.58° 3.00° 577 ft / 176 m (AMSL)
27 DME IGEQ 110.50 MHz 18 nm / 33 km - - - 588 ft / 179 m (AMSL)